createdAt,value
2017-05-26T00:00:50.487Z,6.56
2017-05-26T00:03:18.704Z,7.24
2017-05-26T00:05:46.936Z,6.46
2017-05-26T00:08:15.144Z,6.38
2017-05-26T00:10:43.363Z,6.14
2017-05-26T00:13:11.571Z,7.34
2017-05-26T00:15:39.799Z,5.60
2017-05-26T00:18:08.019Z,6.62
2017-05-26T00:20:36.231Z,7.02
2017-05-26T00:23:04.454Z,6.02
2017-05-26T00:25:32.667Z,6.44
2017-05-26T00:28:00.892Z,8.06
2017-05-26T00:30:29.107Z,7.56
2017-05-26T00:32:57.331Z,8.22
2017-05-26T00:35:25.543Z,8.34
2017-05-26T00:37:53.764Z,8.78
2017-05-26T00:40:21.978Z,7.12
2017-05-26T00:42:50.208Z,7.96
2017-05-26T00:45:18.431Z,7.70
2017-05-26T00:47:46.651Z,8.28
2017-05-26T00:50:14.880Z,8.50
2017-05-26T00:52:43.093Z,10.28
2017-05-26T00:55:11.337Z,9.00
2017-05-26T00:57:39.555Z,8.32
2017-05-26T01:00:07.780Z,8.32
2017-05-26T01:02:35.988Z,8.42
2017-05-26T01:05:04.212Z,8.92
2017-05-26T01:07:32.427Z,9.36
2017-05-26T01:10:00.647Z,10.14
2017-05-26T01:12:28.879Z,8.38
2017-05-26T01:14:57.096Z,8.18
2017-05-26T01:17:25.355Z,8.00
2017-05-26T01:19:53.572Z,9.88
2017-05-26T01:22:21.795Z,8.14
2017-05-26T01:24:50.007Z,8.70
2017-05-26T01:27:18.231Z,7.22
2017-05-26T01:29:46.460Z,8.90
2017-05-26T01:32:14.899Z,9.92
2017-05-26T01:34:43.120Z,10.10
2017-05-26T01:37:11.359Z,9.94
2017-05-26T01:39:39.576Z,8.80
2017-05-26T01:42:07.798Z,8.34
2017-05-26T01:44:36.030Z,9.92
2017-05-26T01:47:04.232Z,9.10
2017-05-26T01:49:32.455Z,9.98
2017-05-26T01:52:00.673Z,9.72
2017-05-26T01:54:29.840Z,9.64
2017-05-26T01:56:58.055Z,11.12
2017-05-26T01:59:26.281Z,10.02
2017-05-26T02:01:54.496Z,10.58
2017-05-26T02:04:22.729Z,9.52
2017-05-26T02:06:50.959Z,11.42
2017-05-26T02:11:54.555Z,10.52
2017-05-26T02:14:22.831Z,10.24
2017-05-26T02:16:51.047Z,10.28
2017-05-26T02:19:19.269Z,10.40
2017-05-26T02:21:47.500Z,10.42
2017-05-26T02:24:15.727Z,9.54
2017-05-26T02:26:43.952Z,10.18
2017-05-26T02:29:12.172Z,9.88
2017-05-26T02:31:40.391Z,10.58
2017-05-26T02:34:08.607Z,9.02
2017-05-26T02:36:36.840Z,10.40
2017-05-26T02:39:05.047Z,8.94
2017-05-26T02:41:33.280Z,9.36
2017-05-26T02:44:01.483Z,10.46
2017-05-26T02:46:29.693Z,9.12
2017-05-26T02:48:57.920Z,10.48
2017-05-26T02:51:26.147Z,9.38
2017-05-26T02:53:54.367Z,9.10
2017-05-26T02:56:22.588Z,9.28
2017-05-26T02:58:50.818Z,11.14
2017-05-26T03:01:19.048Z,10.58
2017-05-26T03:03:47.267Z,9.46
2017-05-26T03:06:15.479Z,9.92
2017-05-26T03:08:43.704Z,9.82
2017-05-26T03:11:11.915Z,8.82
2017-05-26T03:13:40.160Z,8.68
2017-05-26T03:16:08.371Z,9.60
2017-05-26T03:18:36.588Z,10.16
2017-05-26T03:21:04.815Z,9.52
2017-05-26T03:23:33.027Z,10.64
2017-05-26T03:26:01.260Z,10.92
2017-05-26T03:28:29.483Z,10.84
2017-05-26T03:30:58.911Z,11.02
2017-05-26T03:33:27.132Z,11.56
2017-05-26T03:35:55.359Z,11.14
2017-05-26T03:38:23.928Z,11.00
2017-05-26T03:40:52.184Z,11.74
2017-05-26T03:43:20.394Z,10.96
2017-05-26T03:45:48.631Z,15.14
2017-05-26T03:48:16.855Z,12.14
2017-05-26T03:50:45.072Z,12.96
2017-05-26T03:53:13.296Z,11.76
2017-05-26T03:55:41.515Z,10.58
2017-05-26T03:58:09.743Z,10.98
2017-05-26T04:00:37.968Z,11.98
2017-05-26T04:03:06.197Z,10.20
2017-05-26T04:05:34.403Z,10.92
2017-05-26T04:08:02.651Z,10.48
2017-05-26T04:10:30.883Z,9.28
2017-05-26T04:12:59.092Z,8.88
2017-05-26T04:15:27.316Z,9.42
2017-05-26T04:17:55.527Z,9.82
2017-05-26T04:20:23.748Z,8.40
2017-05-26T04:22:51.971Z,8.46
2017-05-26T04:25:20.192Z,9.12
2017-05-26T04:27:48.402Z,9.26
2017-05-26T04:30:16.627Z,8.26
2017-05-26T04:32:44.845Z,8.88
2017-05-26T04:35:13.069Z,9.62
2017-05-26T04:37:41.288Z,8.70
2017-05-26T04:40:09.507Z,8.60
2017-05-26T04:42:37.731Z,9.04
2017-05-26T04:45:05.943Z,8.70
2017-05-26T04:47:34.173Z,6.96
2017-05-26T04:50:02.387Z,7.22
2017-05-26T04:52:30.611Z,7.30
2017-05-26T04:54:58.827Z,6.12
2017-05-26T04:57:27.052Z,5.64
2017-05-26T04:59:55.268Z,6.44
2017-05-26T05:02:23.485Z,6.14
2017-05-26T05:04:51.707Z,6.26
2017-05-26T05:07:20.578Z,6.54
2017-05-26T05:09:48.784Z,6.56
2017-05-26T05:12:17.004Z,7.02
2017-05-26T05:14:45.224Z,7.56
2017-05-26T05:17:13.435Z,7.06
2017-05-26T05:19:41.660Z,6.78
2017-05-26T05:22:09.871Z,6.30
2017-05-26T05:24:38.087Z,5.62
2017-05-26T05:27:06.287Z,6.96
2017-05-26T05:29:34.511Z,6.30
2017-05-26T05:32:02.727Z,5.98
2017-05-26T05:34:30.946Z,5.34
2017-05-26T05:36:59.159Z,5.90
2017-05-26T05:39:27.393Z,5.10
2017-05-26T05:41:55.604Z,4.96
2017-05-26T05:44:23.817Z,5.46
2017-05-26T05:46:52.044Z,4.88
2017-05-26T05:49:20.255Z,6.84
2017-05-26T05:51:48.475Z,5.84
2017-05-26T05:54:16.687Z,6.12
2017-05-26T05:56:44.911Z,4.82
2017-05-26T05:59:13.120Z,5.62
2017-05-26T06:01:41.358Z,6.22
2017-05-26T06:04:09.567Z,6.54
2017-05-26T06:06:37.794Z,5.22
2017-05-26T06:09:05.999Z,5.62
2017-05-26T06:11:34.223Z,5.94
2017-05-26T06:14:02.435Z,6.22
2017-05-26T06:16:30.650Z,6.12
2017-05-26T06:18:58.876Z,6.24
2017-05-26T06:21:27.095Z,4.80
2017-05-26T06:23:55.316Z,5.66
2017-05-26T06:26:23.525Z,5.32
2017-05-26T06:28:51.781Z,5.04
2017-05-26T06:31:19.983Z,4.66
2017-05-26T06:33:48.208Z,5.28
2017-05-26T06:36:16.419Z,5.16
2017-05-26T06:38:44.636Z,5.00
2017-05-26T06:41:12.855Z,4.50
2017-05-26T06:43:41.080Z,4.96
2017-05-26T06:46:09.291Z,4.02
2017-05-26T06:48:37.503Z,4.58
2017-05-26T06:51:05.723Z,4.40
2017-05-26T06:53:33.931Z,5.02
2017-05-26T06:56:02.159Z,4.58
2017-05-26T06:58:30.376Z,5.48
2017-05-26T07:00:58.604Z,4.62
2017-05-26T07:03:26.815Z,4.36
2017-05-26T07:05:55.034Z,4.56
2017-05-26T07:08:23.247Z,5.16
2017-05-26T07:10:51.471Z,4.72
2017-05-26T07:13:19.692Z,4.26
2017-05-26T07:15:47.902Z,5.46
2017-05-26T07:18:16.123Z,5.50
2017-05-26T07:20:44.331Z,4.60
2017-05-26T07:23:12.551Z,4.44
2017-05-26T07:25:40.754Z,5.14
2017-05-26T07:28:08.985Z,4.70
2017-05-26T07:30:37.219Z,4.66
2017-05-26T07:33:05.439Z,4.20
2017-05-26T07:35:33.662Z,5.50
2017-05-26T07:38:01.895Z,4.78
2017-05-26T07:40:30.108Z,5.26
2017-05-26T07:42:58.343Z,4.48
2017-05-26T07:45:26.563Z,4.42
2017-05-26T07:47:54.770Z,4.22
2017-05-26T07:50:22.992Z,3.74
2017-05-26T07:52:51.200Z,5.08
2017-05-26T07:55:19.427Z,4.42
2017-05-26T07:57:48.572Z,4.22
2017-05-26T08:00:16.795Z,4.28
2017-05-26T08:02:45.002Z,4.00
2017-05-26T08:05:13.226Z,3.94
2017-05-26T08:07:41.435Z,3.60
2017-05-26T08:10:09.671Z,4.02
2017-05-26T08:12:37.880Z,3.44
2017-05-26T08:15:06.092Z,3.68
2017-05-26T08:17:34.316Z,4.08
2017-05-26T08:20:02.528Z,3.60
2017-05-26T08:22:30.755Z,4.38
2017-05-26T08:24:58.971Z,3.98
2017-05-26T08:27:27.207Z,3.70
2017-05-26T08:29:55.423Z,3.98
2017-05-26T08:32:23.647Z,2.82
2017-05-26T08:34:51.854Z,3.66
2017-05-26T08:37:20.079Z,3.58
2017-05-26T08:39:48.300Z,3.80
2017-05-26T08:42:16.511Z,3.30
2017-05-26T08:44:44.731Z,3.90
2017-05-26T08:47:12.938Z,3.44
2017-05-26T08:49:41.166Z,3.16
2017-05-26T08:52:09.370Z,3.50
2017-05-26T08:54:37.588Z,3.12
2017-05-26T08:57:05.808Z,2.86
2017-05-26T08:59:34.027Z,3.24
2017-05-26T09:02:02.246Z,2.64
2017-05-26T09:04:30.451Z,3.10
2017-05-26T09:06:58.679Z,3.36
2017-05-26T09:09:26.909Z,2.68
2017-05-26T09:11:55.116Z,2.20
2017-05-26T09:14:23.327Z,2.40
2017-05-26T09:16:51.551Z,3.18
2017-05-26T09:19:19.763Z,3.40
2017-05-26T09:21:47.983Z,3.10
2017-05-26T09:24:16.209Z,2.84
2017-05-26T09:26:44.427Z,2.80
2017-05-26T09:29:12.643Z,2.90
2017-05-26T09:31:40.864Z,3.10
2017-05-26T09:34:09.075Z,2.94
2017-05-26T09:36:37.304Z,3.00
2017-05-26T09:39:05.516Z,2.40
2017-05-26T09:41:33.739Z,2.54
2017-05-26T09:44:01.967Z,2.90
2017-05-26T09:46:30.171Z,3.38
2017-05-26T09:48:59.314Z,2.82
2017-05-26T09:51:27.519Z,4.04
2017-05-26T09:53:55.747Z,3.20
2017-05-26T09:56:23.963Z,3.50
2017-05-26T09:58:52.201Z,2.82
2017-05-26T10:01:20.416Z,2.74
2017-05-26T10:03:48.629Z,2.80
2017-05-26T10:06:16.847Z,2.96
2017-05-26T10:08:45.058Z,2.88
2017-05-26T10:11:13.278Z,3.38
2017-05-26T10:13:41.491Z,2.64
2017-05-26T10:16:10.327Z,3.02
2017-05-26T10:18:38.540Z,2.54
2017-05-26T10:21:06.760Z,2.96
2017-05-26T10:23:34.972Z,3.26
2017-05-26T10:26:03.202Z,2.52
2017-05-26T10:28:31.416Z,2.84
2017-05-26T10:30:59.639Z,2.62
2017-05-26T10:33:27.858Z,1.98
2017-05-26T10:35:56.071Z,1.86
2017-05-26T10:38:24.287Z,1.70
2017-05-26T10:40:53.182Z,1.44
2017-05-26T10:43:21.392Z,1.88
2017-05-26T10:45:49.600Z,1.78
2017-05-26T10:48:17.823Z,1.68
2017-05-26T10:50:46.031Z,1.90
2017-05-26T10:53:15.163Z,1.56
2017-05-26T10:55:43.381Z,1.74
2017-05-26T10:58:11.603Z,1.48
2017-05-26T11:00:39.819Z,1.38
2017-05-26T11:03:08.043Z,1.76
2017-05-26T11:05:36.264Z,1.54
2017-05-26T11:08:04.493Z,1.40
2017-05-26T11:10:32.711Z,1.70
2017-05-26T11:13:00.939Z,1.56
2017-05-26T11:15:29.149Z,1.44
2017-05-26T11:17:57.362Z,1.40
2017-05-26T11:20:25.580Z,1.60
2017-05-26T11:23:03.474Z,2.10
2017-05-26T11:25:31.696Z,1.50
2017-05-26T11:27:59.907Z,1.86
2017-05-26T11:30:28.135Z,1.50
2017-05-26T11:32:56.349Z,1.68
2017-05-26T11:35:24.584Z,1.94
2017-05-26T11:37:52.804Z,1.78
2017-05-26T11:40:21.031Z,1.72
2017-05-26T11:42:49.243Z,2.08
2017-05-26T11:45:17.465Z,1.66
2017-05-26T11:47:46.448Z,1.80
2017-05-26T11:50:14.671Z,1.60
2017-05-26T11:52:42.890Z,1.60
2017-05-26T11:55:11.111Z,1.50
2017-05-26T11:57:39.333Z,1.80
2017-05-26T12:00:07.564Z,1.70
2017-05-26T12:02:35.775Z,1.50
2017-05-26T12:05:03.989Z,1.62
2017-05-26T12:07:32.212Z,1.80
2017-05-26T12:10:00.419Z,1.72
2017-05-26T12:12:28.651Z,1.74
2017-05-26T12:14:56.867Z,1.66
2017-05-26T12:17:25.087Z,2.00
2017-05-26T12:19:53.296Z,1.40
2017-05-26T12:22:21.519Z,1.68
2017-05-26T12:24:49.727Z,1.74
2017-05-26T12:27:17.966Z,1.58
2017-05-26T12:29:47.184Z,1.62
2017-05-26T12:32:15.403Z,1.48
2017-05-26T12:34:44.261Z,1.54
2017-05-26T12:37:12.491Z,1.70
2017-05-26T12:39:40.703Z,1.80
2017-05-26T12:42:08.923Z,1.58
2017-05-26T12:44:37.152Z,1.74
2017-05-26T12:47:05.368Z,2.06
2017-05-26T12:49:33.589Z,1.60
2017-05-26T12:52:01.795Z,1.80
2017-05-26T12:54:30.027Z,1.72
2017-05-26T12:56:58.247Z,1.50
2017-05-26T12:59:26.463Z,1.84
2017-05-26T13:01:54.676Z,1.76
2017-05-26T13:04:22.899Z,1.50
2017-05-26T13:06:51.116Z,1.78
2017-05-26T13:09:19.339Z,1.74
2017-05-26T13:11:47.551Z,2.06
2017-05-26T13:14:15.777Z,1.50
2017-05-26T13:16:43.996Z,1.82
2017-05-26T13:19:12.208Z,1.86
2017-05-26T13:21:40.427Z,2.00
2017-05-26T13:24:08.643Z,1.72
2017-05-26T13:26:36.871Z,2.10
2017-05-26T13:29:05.084Z,1.54
2017-05-26T13:31:33.303Z,1.58
2017-05-26T13:34:01.518Z,1.96
2017-05-26T13:36:29.735Z,1.82
2017-05-26T13:38:57.950Z,2.04
2017-05-26T13:41:26.171Z,1.92
2017-05-26T13:43:54.383Z,1.86
2017-05-26T13:46:22.592Z,1.66
2017-05-26T13:48:50.811Z,1.82
2017-05-26T13:51:19.020Z,2.08
2017-05-26T13:53:47.244Z,1.64
2017-05-26T13:56:15.460Z,1.62
2017-05-26T13:58:43.682Z,1.74
2017-05-26T14:01:11.896Z,1.88
2017-05-26T14:03:40.124Z,1.60
2017-05-26T14:06:08.330Z,2.02
2017-05-26T14:08:36.556Z,1.78
2017-05-26T14:11:04.776Z,1.80
2017-05-26T14:13:33.000Z,2.30
2017-05-26T14:16:01.212Z,1.72
2017-05-26T14:18:29.470Z,1.84
2017-05-26T14:20:57.687Z,1.96
2017-05-26T14:23:25.899Z,1.68
2017-05-26T14:25:54.129Z,1.50
2017-05-26T14:28:22.335Z,1.70
2017-05-26T14:30:50.560Z,1.58
2017-05-26T14:33:18.772Z,1.54
2017-05-26T14:35:47.003Z,1.58
2017-05-26T14:38:15.220Z,2.04
2017-05-26T14:40:43.457Z,1.70
2017-05-26T14:43:12.039Z,1.96
2017-05-26T14:45:40.260Z,2.68
2017-05-26T14:48:08.479Z,2.12
2017-05-26T14:50:36.705Z,2.30
2017-05-26T14:53:04.944Z,1.90
2017-05-26T14:55:33.167Z,1.86
2017-05-26T14:58:01.376Z,2.20
2017-05-26T15:00:29.592Z,1.88
2017-05-26T15:02:57.825Z,1.58
2017-05-26T15:05:26.037Z,1.90
2017-05-26T15:07:54.259Z,1.96
2017-05-26T15:10:22.475Z,2.46
2017-05-26T15:12:50.703Z,1.90
2017-05-26T15:15:18.921Z,2.54
2017-05-26T15:17:47.143Z,1.74
2017-05-26T15:20:15.367Z,2.12
2017-05-26T15:22:43.611Z,1.80
2017-05-26T15:25:11.851Z,1.64
2017-05-26T15:27:40.064Z,2.12
2017-05-26T15:30:08.315Z,1.80
2017-05-26T15:32:36.526Z,2.10
2017-05-26T15:35:04.759Z,3.02
2017-05-26T15:37:32.975Z,2.06
2017-05-26T15:40:01.200Z,2.12
2017-05-26T15:42:29.407Z,1.70
2017-05-26T15:44:57.648Z,2.22
2017-05-26T15:47:25.869Z,2.02
2017-05-26T15:49:54.080Z,1.90
2017-05-26T15:52:22.299Z,1.72
2017-05-26T15:54:50.507Z,2.12
2017-05-26T15:57:18.736Z,2.28
2017-05-26T15:59:46.957Z,1.86
2017-05-26T16:02:15.175Z,1.86
2017-05-26T16:04:43.807Z,1.64
2017-05-26T16:07:12.027Z,2.30
2017-05-26T16:09:40.299Z,2.06
2017-05-26T16:12:08.476Z,2.16
2017-05-26T16:14:36.694Z,1.74
2017-05-26T16:17:04.920Z,6.58
2017-05-26T16:19:33.127Z,1.92
2017-05-26T16:22:01.343Z,2.74
2017-05-26T16:24:29.556Z,1.74
2017-05-26T16:26:57.791Z,1.90
2017-05-26T16:29:26.020Z,1.60
2017-05-26T16:31:54.235Z,1.74
2017-05-26T16:34:22.459Z,1.88
2017-05-26T16:36:50.676Z,1.74
2017-05-26T16:39:18.901Z,1.82
2017-05-26T16:41:47.119Z,1.96
2017-05-26T16:44:15.356Z,1.76
2017-05-26T16:46:43.570Z,1.90
2017-05-26T16:49:11.802Z,1.82
2017-05-26T16:51:40.007Z,2.44
2017-05-26T16:54:08.228Z,2.08
2017-05-26T16:56:36.443Z,1.76
2017-05-26T16:59:04.659Z,2.08
2017-05-26T17:01:32.876Z,1.94
2017-05-26T17:04:01.092Z,2.20
2017-05-26T17:06:29.319Z,2.16
2017-05-26T17:08:57.544Z,2.22
2017-05-26T17:11:25.787Z,1.66
2017-05-26T17:13:54.004Z,1.46
2017-05-26T17:16:22.223Z,2.08
2017-05-26T17:18:50.446Z,1.88
2017-05-26T17:21:18.684Z,2.18
2017-05-26T17:23:46.895Z,1.76
2017-05-26T17:26:15.104Z,1.68
2017-05-26T17:28:43.329Z,2.14
2017-05-26T17:31:11.552Z,1.96
2017-05-26T17:33:39.772Z,2.42
2017-05-26T17:36:07.987Z,1.78
2017-05-26T17:38:36.221Z,2.40
2017-05-26T17:41:04.448Z,2.72
2017-05-26T17:43:32.673Z,2.14
2017-05-26T17:46:00.879Z,1.90
2017-05-26T17:48:29.109Z,2.48
2017-05-26T17:50:57.327Z,33.16
2017-05-26T17:53:25.545Z,2.24
2017-05-26T17:55:53.779Z,2.64
2017-05-26T17:58:21.979Z,2.52
2017-05-26T18:00:50.204Z,1.88
2017-05-26T18:03:18.411Z,2.20
2017-05-26T18:05:46.640Z,3.06
2017-05-26T18:08:14.854Z,3.20
2017-05-26T18:10:43.071Z,2.26
2017-05-26T18:13:11.287Z,1.64
2017-05-26T18:15:39.507Z,1.88
2017-05-26T18:18:07.719Z,2.38
2017-05-26T18:20:35.927Z,1.84
2017-05-26T18:23:04.151Z,1.84
2017-05-26T18:25:32.370Z,2.08
2017-05-26T18:28:00.595Z,1.74
2017-05-26T18:30:28.807Z,2.18
2017-05-26T18:32:57.031Z,2.16
2017-05-26T18:35:25.246Z,2.20
2017-05-26T18:37:53.472Z,2.62
2017-05-26T18:40:21.691Z,2.02
2017-05-26T18:42:49.907Z,2.54
2017-05-26T18:45:18.136Z,2.14
2017-05-26T18:47:46.347Z,2.18
2017-05-26T18:50:14.567Z,2.82
2017-05-26T18:52:42.784Z,2.44
2017-05-26T18:55:11.012Z,2.58
2017-05-26T18:57:39.219Z,2.84
2017-05-26T19:00:07.443Z,2.56
2017-05-26T19:02:35.655Z,2.40
2017-05-26T19:05:03.875Z,2.28
2017-05-26T19:07:32.092Z,2.10
2017-05-26T19:10:00.320Z,1.88
2017-05-26T19:12:28.544Z,2.42
2017-05-26T19:14:56.755Z,2.24
2017-05-26T19:17:24.975Z,2.50
2017-05-26T19:19:53.184Z,2.28
2017-05-26T19:22:21.401Z,2.00
2017-05-26T19:24:50.077Z,2.02
2017-05-26T19:27:18.275Z,2.54
2017-05-26T19:29:46.487Z,3.12
2017-05-26T19:32:14.724Z,2.52
2017-05-26T19:34:42.945Z,2.40
2017-05-26T19:37:11.156Z,2.54
2017-05-26T19:39:39.376Z,2.70
2017-05-26T19:42:07.584Z,2.52
2017-05-26T19:44:35.804Z,2.84
2017-05-26T19:47:04.020Z,3.30
2017-05-26T19:49:32.243Z,3.70
2017-05-26T19:52:00.450Z,4.02
2017-05-26T19:54:28.676Z,3.50
2017-05-26T19:56:56.887Z,5.12
2017-05-26T19:59:25.129Z,7.62
2017-05-26T20:01:53.344Z,8.42
2017-05-26T20:04:21.564Z,16.24
2017-05-26T20:06:49.795Z,16.76
2017-05-26T20:09:18.003Z,13.60
2017-05-26T20:11:46.227Z,13.42
2017-05-26T20:14:14.452Z,10.66
2017-05-26T20:16:42.687Z,9.24
2017-05-26T20:19:10.903Z,7.92
2017-05-26T20:21:45.400Z,7.70
2017-05-26T20:24:13.616Z,6.86
2017-05-26T20:26:41.856Z,4.86
2017-05-26T20:29:10.066Z,3.32
2017-05-26T20:31:38.284Z,4.10
2017-05-26T20:34:06.507Z,3.26
2017-05-26T20:36:34.727Z,3.26
2017-05-26T20:39:02.947Z,3.08
2017-05-26T20:41:31.161Z,3.20
2017-05-26T20:43:59.375Z,4.00
2017-05-26T20:46:27.596Z,3.26
2017-05-26T20:48:55.904Z,2.72
2017-05-26T20:51:24.123Z,3.04
2017-05-26T20:53:52.361Z,3.02
2017-05-26T20:56:20.572Z,3.38
2017-05-26T20:58:48.775Z,3.18
2017-05-26T21:01:16.995Z,3.94
2017-05-26T21:03:45.204Z,3.58
2017-05-26T21:06:13.439Z,3.40
2017-05-26T21:08:41.653Z,2.52
2017-05-26T21:11:09.867Z,2.66
2017-05-26T21:13:38.075Z,3.24
2017-05-26T21:16:06.296Z,3.12
2017-05-26T21:18:34.508Z,3.30
2017-05-26T21:21:02.724Z,3.80
2017-05-26T21:23:30.947Z,3.40
2017-05-26T21:25:59.159Z,3.32
2017-05-26T21:28:27.384Z,3.28
2017-05-26T21:30:55.595Z,3.32
2017-05-26T21:33:23.818Z,2.90
2017-05-26T21:35:52.027Z,3.18
2017-05-26T21:38:20.252Z,4.14
2017-05-26T21:40:48.475Z,2.66
2017-05-26T21:43:16.719Z,3.14
2017-05-26T21:45:44.934Z,3.72
2017-05-26T21:48:13.158Z,2.78
2017-05-26T21:50:41.381Z,2.92
2017-05-26T21:53:09.590Z,2.98
2017-05-26T21:55:37.815Z,3.16
2017-05-26T21:58:06.024Z,2.10
2017-05-26T22:00:34.246Z,2.72
2017-05-26T22:03:02.467Z,2.84
2017-05-26T22:05:30.692Z,2.70
2017-05-26T22:07:58.925Z,2.36
2017-05-26T22:10:27.160Z,2.72
2017-05-26T22:12:55.385Z,2.44
2017-05-26T22:15:23.595Z,2.28
2017-05-26T22:17:51.808Z,2.56
2017-05-26T22:20:20.027Z,2.68
2017-05-26T22:22:48.243Z,2.18
2017-05-26T22:25:16.451Z,2.66
2017-05-26T22:27:44.684Z,2.84
2017-05-26T22:30:12.900Z,2.96
2017-05-26T22:32:41.130Z,2.90
2017-05-26T22:35:10.117Z,3.80
2017-05-26T22:37:38.337Z,2.64
2017-05-26T22:40:06.548Z,3.38
2017-05-26T22:42:48.888Z,3.24
2017-05-26T22:45:17.100Z,3.54
2017-05-26T22:47:45.311Z,3.20
2017-05-26T22:50:13.531Z,3.18
2017-05-26T22:52:41.736Z,3.34
2017-05-26T22:55:09.956Z,3.28
2017-05-26T22:57:38.176Z,3.08
2017-05-26T23:00:06.412Z,2.78
2017-05-26T23:02:34.611Z,3.20
2017-05-26T23:05:02.838Z,3.08
2017-05-26T23:07:31.047Z,3.00
2017-05-26T23:09:59.268Z,2.72
2017-05-26T23:12:27.484Z,3.58
2017-05-26T23:14:55.720Z,2.96
2017-05-26T23:17:23.935Z,2.82
2017-05-26T23:19:52.145Z,2.88
2017-05-26T23:22:20.363Z,2.52
2017-05-26T23:24:48.577Z,3.02
2017-05-26T23:27:16.799Z,3.00
2017-05-26T23:29:45.008Z,2.34
2017-05-26T23:32:13.232Z,2.28
2017-05-26T23:34:41.445Z,2.52
2017-05-26T23:37:09.667Z,2.70
2017-05-26T23:39:37.882Z,2.08
